Owensboro Daviess County Airport
KOWB : now visible

Airfield :











YOU CAN JOIN US ON...

 
LOGIN :

Register | Disclaimer

   EN    FR    IT 

 









Legend :    VFR   Marginal VFR   IFR   Intensive IFR   Very Intensive IFR
Visi :
Ceiling :
>= 8 km
>= 3000ft
5 to 8 km
1000 to 3000 ft
1500m to 5 km
500 to 1000 ft
800 to 1500m
200 to 500 ft
< 800m
< 200 ft
Symbols :   Thunderstorms  Fog  Heavy snow  Heavy precipitations  Wind > 20 kt






- Airport Elevation : 407 ft
- IATA code : OWB


KOWB - Owensboro Daviess County

CURRENT METAR :
  • 100656Z AUTO 33014KT 10SM CLR 05/M07 A3004 RMK AO2 SLP174 T00501072

EXPIRED METARs :
  • 100556Z AUTO 33016G22KT 10SM CLR 06/M09 A3002 RMK AO2 PK WND 33031/0459 SLP169 T00561094 10144 20056 401670056 51043
  • 100456Z AUTO 32020G27KT 10SM FEW046 07/M08 A2999 RMK AO2 PK WND 32030/0443 SLP158 T00671078

TAF KOWB
Valid from the 10 at 06:00 until the 11 at 06:00 UTC


100520Z 1006/1106 33014G23KT P6SM SKC
FM101400 33011KT P6SM SKC



MET'MAP, your aeronautical weather chart ! - Copyright ORBIFLY December 2007 - Disclaimer

ORBIFLY MET'MAP TEAM :

Programming & Development : Alexandra Zaïnal
Concept & original design : Baudouin d'Aumeries
Assistance for programming : Marc-Olivier Méhu
Technical & hardware support : Manuel Goepfert

Contact : metmap@orbifly.com




SOURCES & CREDITS :

   NOAA       Earth
Advisory